Chaska, MN

7:03 PM CDT on May 30, 2015 (GMT -0500)
Flying Cloud | | Change Station
CLOSE
Current Station
Airport
Location: Minneapolis Flying Cloud,
Elevation: 906 ft
Nearby Weather Stations

Elev 906 ft 44.83 °N, 93.46 °W | Updated 10 minutes ago

Clear
Clear
62 °F
Feels Like 62 °F
N
12
Wind Variable Wind from NE

Today
High -- | Low -- °F
--% Chance of Precip.
Yesterday
High -- | Low -- °F
Precip. -- in
5:32 AM 8:51 PM
Waxing Gibbous, 93% visible
Pressure 30.22 in
Visibility 10.0 miles
Clouds Clear
Dew Point 40 °F
Humidity 44%
Rainfall 0.00 in
Snow Depth Not available.
UV 1 out of 12
Pollen 8.10 out of 12
Air Quality Not available.
Flu Activity Sporadic
METAR KFCM 302353Z 05010KT 10SM CLR 17/04 A3021 RMK AO2 SLP232 T01670044 10183 20150 56004

More Conditions Fewer Conditions

Pressure 30.22 in
Visibility 10.0 miles
Clouds Clear
Dew Point 40 °F
Humidity 44%
Rainfall 0.00 in
Snow Depth Not available.
UV 1 out of 12
Pollen 8.10 out of 12
Air Quality Not available.
Flu Activity Sporadic
METAR KFCM 302353Z 05010KT 10SM CLR 17/04 A3021 RMK AO2 SLP232 T01670044 10183 20150 56004

More Conditions Fewer Conditions

10-Day Weather Forecast

Almanac

Astronomy

May. 30, 2015 Rise Set
Actual Time
Civil Twilight
Nautical Twilight
Astronomical Twilight
Moon
Length of Visible Light
Length of Day
Tomorrow will be .
, % of the Moon is Illuminated

Today's Extremes

State Highs State Lows

Community

WunderPhotos

Upload Photos

1,825,558 photos uploaded!

WunderBlogs® & News

Nearby

Air Quality

  Air Quality AQ Index Pollutant
Not available.

Snow Depth

Station Depth Elevation

Earthquake Activity

City Distance Mag. Time & Date
Minimum magnitude displayed is 2.5.

Coastal Water Temperatures

Place Temperature

Stations

Nearby Weather Stations

Station Location Temp. Windchill Dew Point Humidity Wind Precip. Elev Updated Type